Time;durP1;ratioP1;P1;durP2;ratioP2;P2;SDS_P1;SDS_P2;PMS_P1;PMS_P2;Temp;Humidity;BMP_temperature;BMP_pressure;BME280_temperature;BME280_humidity;BME280_pressure;Samples;Min_cycle;Max_cycle;Signal;HPM_P1;HPM_P2
2024/04/02 00:01:47;;;;;;;0.80;0.30;;;8.10;99.90;;;;;;5052050;28;20434;-83
2024/04/02 00:04:14;;;;;;;1.08;0.47;;;8.10;99.90;;;;;;5058169;28;20039;-83
2024/04/02 00:06:40;;;;;;;0.50;0.30;;;8.20;99.90;;;;;;5068743;28;20040;-83
2024/04/02 00:09:06;;;;;;;0.55;0.30;;;8.10;99.90;;;;;;5051687;28;20380;-83
2024/04/02 00:11:32;;;;;;;1.85;0.52;;;8.20;99.90;;;;;;5042098;28;20040;-83
2024/04/02 00:13:58;;;;;;;0.60;0.30;;;8.10;99.90;;;;;;5046164;28;20049;-83
2024/04/02 00:16:25;;;;;;;0.85;0.30;;;8.10;99.90;;;;;;5058543;28;20071;-83
2024/04/02 00:18:51;;;;;;;0.50;0.22;;;8.20;99.90;;;;;;5040192;28;20045;-83
2024/04/02 00:21:17;;;;;;;1.55;0.30;;;8.20;99.90;;;;;;5038847;28;20032;-83
2024/04/02 00:23:43;;;;;;;1.00;0.30;;;8.10;99.90;;;;;;5056169;28;20101;-83
2024/04/02 00:26:09;;;;;;;0.80;0.30;;;8.10;99.90;;;;;;5059851;28;20067;-82
2024/04/02 00:28:35;;;;;;;0.32;0.20;;;8.10;99.90;;;;;;5035706;28;20463;-83
2024/04/02 00:31:02;;;;;;;0.40;0.22;;;8.10;99.90;;;;;;5038565;28;20044;-82
2024/04/02 00:33:29;;;;;;;0.50;0.30;;;8.10;99.90;;;;;;5060664;28;20411;-83
2024/04/02 00:36:03;;;;;;;1.48;0.20;;;8.10;99.90;;;;;;5059654;28;20041;-83
2024/04/02 00:38:29;;;;;;;0.32;0.10;;;8.00;99.90;;;;;;5029209;28;20499;-82
2024/04/02 00:40:55;;;;;;;1.50;0.20;;;8.00;99.90;;;;;;5077423;28;20028;-83
2024/04/02 00:43:22;;;;;;;0.40;0.20;;;8.00;99.90;;;;;;5092111;28;20472;-83
2024/04/02 00:45:48;;;;;;;0.38;0.10;;;8.00;99.90;;;;;;5052440;28;20124;-83
2024/04/02 00:48:17;;;;;;;0.30;0.10;;;8.00;99.90;;;;;;5028117;28;20032;-83
2024/04/02 00:50:44;;;;;;;0.50;0.10;;;8.00;99.90;;;;;;5066762;28;20052;-83
2024/04/02 00:53:11;;;;;;;0.45;0.20;;;8.00;99.90;;;;;;5049653;28;20079;-83
2024/04/02 00:55:38;;;;;;;0.85;0.20;;;8.00;99.90;;;;;;5085013;28;20114;-83
2024/04/02 00:58:07;;;;;;;0.70;0.20;;;8.00;99.90;;;;;;5038577;28;20052;-83
2024/04/02 01:00:36;;;;;;;0.70;0.20;;;8.00;99.90;;;;;;5071944;28;20056;-83
2024/04/02 01:03:05;;;;;;;0.47;0.13;;;8.00;99.90;;;;;;5044692;28;20051;-83
2024/04/02 01:05:35;;;;;;;0.68;0.17;;;8.00;99.90;;;;;;5048969;28;20043;-83
2024/04/02 01:08:03;;;;;;;0.25;0.13;;;8.00;99.90;;;;;;5045082;28;20763;-82
2024/04/02 01:10:31;;;;;;;0.82;0.22;;;8.00;99.90;;;;;;5042149;28;20110;-83
2024/04/02 01:13:01;;;;;;;0.68;0.20;;;8.00;99.90;;;;;;5072963;28;20044;-82
2024/04/02 01:15:27;;;;;;;0.40;0.20;;;8.00;99.90;;;;;;5058852;28;20519;-82
2024/04/02 01:17:54;;;;;;;1.02;0.20;;;8.00;99.90;;;;;;5058921;28;20113;-83
2024/04/02 01:20:21;;;;;;;0.77;0.10;;;8.00;99.90;;;;;;5046286;28;20045;-83
2024/04/02 01:22:47;;;;;;;0.43;0.20;;;8.00;99.90;;;;;;5058526;28;20188;-82
2024/04/02 01:25:19;;;;;;;0.20;0.10;;;8.00;99.90;;;;;;5025755;28;20056;-83
2024/04/02 01:27:45;;;;;;;0.57;0.20;;;8.00;99.90;;;;;;5075249;28;20037;-82
2024/04/02 01:30:11;;;;;;;0.55;0.20;;;7.90;99.90;;;;;;5058837;28;20078;-83
2024/04/02 01:32:37;;;;;;;0.70;0.20;;;8.00;99.90;;;;;;5054986;28;20527;-83
2024/04/02 01:35:03;;;;;;;0.60;0.30;;;8.00;99.90;;;;;;5039325;28;20040;-83
2024/04/02 01:37:29;;;;;;;0.85;0.32;;;7.90;99.90;;;;;;5041995;28;20048;-83
2024/04/02 01:39:55;;;;;;;0.40;0.20;;;7.90;99.90;;;;;;5054986;28;20416;-83
2024/04/02 01:42:22;;;;;;;0.60;0.15;;;7.90;99.90;;;;;;5021979;28;20041;-83
2024/04/02 01:44:48;;;;;;;0.20;0.10;;;7.90;99.90;;;;;;5023481;28;20407;-83
2024/04/02 01:47:14;;;;;;;0.40;0.10;;;7.90;99.90;;;;;;5041257;28;20072;-83
2024/04/02 01:49:42;;;;;;;0.40;0.10;;;7.80;99.90;;;;;;5042388;28;20553;-82
2024/04/02 01:52:08;;;;;;;0.52;0.13;;;7.80;99.90;;;;;;5075125;28;20041;-83
2024/04/02 01:54:34;;;;;;;1.48;0.20;;;7.80;99.90;;;;;;5049194;28;20032;-83
2024/04/02 01:57:00;;;;;;;0.70;0.30;;;7.80;99.90;;;;;;5037419;28;20412;-83
2024/04/02 01:59:26;;;;;;;0.45;0.22;;;7.80;99.90;;;;;;5052012;28;20040;-83
2024/04/02 02:01:52;;;;;;;0.52;0.20;;;7.80;99.90;;;;;;5047831;28;20464;-83
2024/04/02 02:04:19;;;;;;;0.52;0.13;;;7.70;99.90;;;;;;5041889;28;20408;-82
2024/04/02 02:06:45;;;;;;;0.38;0.10;;;7.80;99.90;;;;;;5038272;28;20048;-83
2024/04/02 02:09:12;;;;;;;1.20;0.20;;;7.70;99.90;;;;;;5034641;28;20106;-82
2024/04/02 02:11:38;;;;;;;0.10;0.10;;;7.70;99.90;;;;;;5074418;28;20416;-83
2024/04/02 02:14:04;;;;;;;0.30;0.10;;;7.70;99.90;;;;;;5043597;28;20052;-83
2024/04/02 02:16:30;;;;;;;0.52;0.20;;;7.60;99.90;;;;;;5038071;28;20044;-84
2024/04/02 02:18:56;;;;;;;0.50;0.20;;;7.60;99.90;;;;;;5033276;28;20048;-83
2024/04/02 02:21:23;;;;;;;1.38;0.25;;;7.50;99.90;;;;;;5042961;28;20136;-83
2024/04/02 02:23:50;;;;;;;0.32;0.10;;;7.50;99.90;;;;;;5083454;28;20036;-83
2024/04/02 02:26:18;;;;;;;0.30;0.10;;;7.40;99.90;;;;;;5054232;28;20046;-83
2024/04/02 02:28:44;;;;;;;0.57;0.10;;;7.40;99.90;;;;;;5056398;28;20492;-83
2024/04/02 02:31:11;;;;;;;0.43;0.22;;;7.40;99.90;;;;;;5066600;28;20043;-83
2024/04/02 02:33:37;;;;;;;0.38;0.20;;;7.30;99.90;;;;;;5075197;28;20067;-83
2024/04/02 02:36:03;;;;;;;0.20;0.10;;;7.30;99.90;;;;;;5044606;28;20037;-83
2024/04/02 02:38:29;;;;;;;0.30;0.20;;;7.30;99.90;;;;;;5026682;28;20049;-83
2024/04/02 02:41:02;;;;;;;0.57;0.10;;;7.30;99.90;;;;;;5040886;28;20454;-83
2024/04/02 02:43:28;;;;;;;0.40;0.10;;;7.30;99.90;;;;;;5070377;28;20035;-83
2024/04/02 02:45:55;;;;;;;0.20;0.10;;;7.20;99.90;;;;;;5071158;28;20567;-83
2024/04/02 02:48:21;;;;;;;0.32;0.10;;;7.20;99.90;;;;;;5038443;28;20496;-83
2024/04/02 02:50:47;;;;;;;0.55;0.10;;;7.20;99.90;;;;;;5019217;28;20049;-83
2024/04/02 02:53:14;;;;;;;0.60;0.20;;;7.20;99.90;;;;;;5024196;28;20055;-83
2024/04/02 02:55:40;;;;;;;0.13;0.00;;;7.20;99.90;;;;;;5052847;28;20044;-83
2024/04/02 02:58:05;;;;;;;0.40;0.10;;;7.20;99.90;;;;;;5073482;28;20392;-83
2024/04/02 03:00:31;;;;;;;0.55;0.10;;;7.20;99.90;;;;;;5040589;28;20044;-83
2024/04/02 03:02:58;;;;;;;0.95;0.10;;;7.20;99.90;;;;;;5037258;28;20452;-83
2024/04/02 03:05:24;;;;;;;0.30;0.10;;;7.20;99.90;;;;;;5060233;28;20044;-83
2024/04/02 03:07:50;;;;;;;0.25;0.20;;;7.20;99.90;;;;;;5044196;28;20039;-83
2024/04/02 03:10:16;;;;;;;0.57;0.20;;;7.20;99.90;;;;;;5086820;28;20055;-83
2024/04/02 03:12:42;;;;;;;0.43;0.10;;;7.20;99.90;;;;;;5046621;28;20442;-83
2024/04/02 03:15:08;;;;;;;0.70;0.20;;;7.20;99.90;;;;;;5059899;28;20454;-82
2024/04/02 03:17:34;;;;;;;0.85;0.20;;;7.20;99.90;;;;;;5075417;28;20047;-83
2024/04/02 03:20:00;;;;;;;0.75;0.40;;;7.30;99.90;;;;;;5053443;28;20094;-83
2024/04/02 03:22:25;;;;;;;0.68;0.20;;;7.30;99.90;;;;;;5016590;28;20052;-83
2024/04/02 03:24:52;;;;;;;1.58;0.32;;;7.30;99.90;;;;;;5056632;28;20033;-83
2024/04/02 03:27:18;;;;;;;1.05;0.20;;;7.30;99.90;;;;;;5040173;28;20063;-83
2024/04/02 03:29:43;;;;;;;0.73;0.20;;;7.20;99.90;;;;;;5039554;28;20492;-83
2024/04/02 03:32:09;;;;;;;2.03;0.75;;;7.30;99.90;;;;;;5039679;28;20068;-83
2024/04/02 03:34:35;;;;;;;0.60;0.28;;;7.30;99.90;;;;;;5052821;28;20072;-83
2024/04/02 03:37:01;;;;;;;0.60;0.20;;;7.30;99.90;;;;;;5039661;28;20055;-83
2024/04/02 03:39:27;;;;;;;0.90;0.30;;;7.30;99.90;;;;;;5039598;28;20131;-83
2024/04/02 03:41:53;;;;;;;1.20;0.20;;;7.30;99.90;;;;;;5055616;28;20416;-83
2024/04/02 03:44:19;;;;;;;1.52;0.30;;;7.30;99.90;;;;;;5057734;28;20048;-83
2024/04/02 03:46:45;;;;;;;0.88;0.30;;;7.30;99.90;;;;;;5059352;28;20047;-83
2024/04/02 03:49:11;;;;;;;1.65;0.40;;;7.30;99.90;;;;;;5037226;28;20048;-83
2024/04/02 03:51:37;;;;;;;1.00;0.30;;;7.20;99.90;;;;;;5050351;28;20048;-84
2024/04/02 03:54:03;;;;;;;1.40;0.30;;;7.30;99.90;;;;;;5042487;28;20048;-83
2024/04/02 03:56:29;;;;;;;0.82;0.30;;;7.30;99.90;;;;;;5056504;28;20055;-83
2024/04/02 03:58:55;;;;;;;0.57;0.30;;;7.30;99.90;;;;;;5037057;28;20497;-82
2024/04/02 04:01:21;;;;;;;1.70;0.38;;;7.30;99.90;;;;;;5072361;28;20048;-83
2024/04/02 04:03:47;;;;;;;1.00;0.32;;;7.30;99.90;;;;;;5072366;28;20048;-83
2024/04/02 04:06:13;;;;;;;3.50;0.40;;;7.40;99.90;;;;;;5052535;28;20098;-83
2024/04/02 04:08:40;;;;;;;0.65;0.40;;;7.40;99.90;;;;;;5039130;28;20072;-83
2024/04/02 04:11:06;;;;;;;1.70;0.40;;;7.40;99.90;;;;;;5036066;28;20041;-83
2024/04/02 04:13:32;;;;;;;1.17;0.38;;;7.40;99.90;;;;;;5072204;28;20056;-83
2024/04/02 04:15:59;;;;;;;1.67;0.38;;;7.30;99.90;;;;;;5053741;28;20524;-83
2024/04/02 04:18:27;;;;;;;1.17;0.30;;;7.30;99.90;;;;;;5084614;28;20041;-83
2024/04/02 04:20:58;;;;;;;1.10;0.40;;;7.30;99.90;;;;;;5055870;28;20078;-83
2024/04/02 04:23:24;;;;;;;1.30;0.38;;;7.30;99.90;;;;;;5065593;28;20087;-83
2024/04/02 04:25:58;;;;;;;1.33;0.40;;;7.30;99.90;;;;;;5062107;28;20044;-83
2024/04/02 04:28:25;;;;;;;2.25;0.40;;;7.30;99.90;;;;;;5060831;28;20449;-83
2024/04/02 04:30:55;;;;;;;1.25;0.40;;;7.40;99.90;;;;;;5044161;28;20090;-83
2024/04/02 04:33:22;;;;;;;1.50;0.40;;;7.30;99.90;;;;;;5039248;28;20052;-83
2024/04/02 04:35:48;;;;;;;1.50;0.30;;;7.30;99.90;;;;;;5068427;28;20052;-83
2024/04/02 04:38:15;;;;;;;1.02;0.30;;;7.30;99.90;;;;;;5061081;28;20487;-83
2024/04/02 04:40:42;;;;;;;1.02;0.20;;;7.30;99.90;;;;;;5062849;28;20060;-83
2024/04/02 04:43:08;;;;;;;0.90;0.30;;;7.30;99.90;;;;;;5055262;28;20048;-83
2024/04/02 04:45:34;;;;;;;0.95;0.20;;;7.30;99.90;;;;;;5038512;28;20029;-83
2024/04/02 04:48:06;;;;;;;1.42;0.40;;;7.30;99.90;;;;;;5038556;28;20095;-83
2024/04/02 04:50:32;;;;;;;2.42;0.60;;;7.30;99.90;;;;;;5058711;28;20048;-83
2024/04/02 04:52:59;;;;;;;2.58;0.50;;;7.30;99.90;;;;;;5061807;28;20074;-83
2024/04/02 04:55:25;;;;;;;1.98;0.70;;;7.40;99.90;;;;;;5051978;28;20504;-83
2024/04/02 04:57:51;;;;;;;1.92;0.60;;;7.50;99.90;;;;;;5038480;28;20404;-83
2024/04/02 05:00:17;;;;;;;2.58;0.47;;;7.60;99.90;;;;;;5038407;28;20064;-83
2024/04/02 05:02:43;;;;;;;1.38;0.40;;;7.70;99.90;;;;;;5059079;28;20036;-83
2024/04/02 05:05:09;;;;;;;1.77;0.50;;;7.70;99.90;;;;;;5051360;28;20546;-83
2024/04/02 05:07:35;;;;;;;1.30;0.40;;;7.80;99.90;;;;;;5077480;28;20127;-83
2024/04/02 05:10:01;;;;;;;2.83;0.50;;;7.90;99.90;;;;;;5033032;28;20052;-83
2024/04/02 05:12:27;;;;;;;1.38;0.52;;;7.90;99.90;;;;;;5038807;28;20138;-83
2024/04/02 05:14:53;;;;;;;2.80;0.60;;;8.00;99.90;;;;;;5034967;28;20106;-83
2024/04/02 05:17:19;;;;;;;1.73;0.50;;;8.00;99.90;;;;;;5051549;28;20037;-82
2024/04/02 05:19:45;;;;;;;1.00;0.40;;;8.00;99.90;;;;;;5037123;28;20143;-83
2024/04/02 05:22:12;;;;;;;2.05;0.45;;;8.00;99.90;;;;;;5058733;28;20048;-83
2024/04/02 05:24:38;;;;;;;1.23;0.45;;;8.00;99.90;;;;;;5042752;28;20044;-83
2024/04/02 05:27:04;;;;;;;1.23;0.57;;;8.10;99.90;;;;;;5038381;28;20043;-83
2024/04/02 05:29:30;;;;;;;1.75;0.50;;;8.10;99.90;;;;;;5054733;28;20049;-83
2024/04/02 05:31:56;;;;;;;3.05;0.88;;;8.10;99.90;;;;;;5059752;28;20093;-76
2024/04/02 05:34:22;;;;;;;2.95;0.60;;;8.20;99.90;;;;;;5047462;28;20036;-76
2024/04/02 05:36:48;;;;;;;5.05;1.15;;;8.30;99.90;;;;;;5059657;28;20052;-77
2024/04/02 05:39:14;;;;;;;3.35;0.90;;;8.40;99.90;;;;;;5059564;28;20049;-76
2024/04/02 05:41:40;;;;;;;3.05;0.88;;;8.40;99.90;;;;;;5034617;28;20037;-76
2024/04/02 05:44:06;;;;;;;3.03;0.85;;;8.50;99.90;;;;;;5037155;28;20036;-76
2024/04/02 05:46:32;;;;;;;1.80;0.73;;;8.50;99.90;;;;;;5082511;28;20403;-77
2024/04/02 05:48:57;;;;;;;2.80;0.70;;;8.60;99.90;;;;;;5024542;28;20466;-76
2024/04/02 05:51:24;;;;;;;1.83;0.75;;;8.60;99.90;;;;;;5051733;28;20525;-77
2024/04/02 05:53:50;;;;;;;2.40;0.73;;;8.70;99.90;;;;;;5064138;28;20047;-76
2024/04/02 05:56:19;;;;;;;1.73;0.60;;;8.70;99.90;;;;;;5049956;28;20048;-77
2024/04/02 05:58:45;;;;;;;4.22;0.90;;;8.80;99.90;;;;;;5076850;28;20404;-77
2024/04/02 06:01:11;;;;;;;2.45;0.70;;;8.80;99.90;;;;;;5055619;28;20044;-77
2024/04/02 06:03:37;;;;;;;1.52;0.43;;;8.80;99.90;;;;;;5029595;28;20037;-76
2024/04/02 06:06:03;;;;;;;5.53;1.00;;;8.80;99.90;;;;;;5070834;28;20071;-77
2024/04/02 06:08:29;;;;;;;3.67;0.82;;;8.90;99.90;;;;;;5050951;28;20098;-77
2024/04/02 06:10:55;;;;;;;4.00;0.98;;;8.90;99.90;;;;;;5071467;28;20048;-76
2024/04/02 06:13:21;;;;;;;3.17;1.02;;;9.00;99.90;;;;;;5063568;28;20049;-77
2024/04/02 06:15:47;;;;;;;2.70;0.90;;;8.90;99.90;;;;;;5061757;28;20040;-77
2024/04/02 06:18:13;;;;;;;2.45;0.68;;;8.90;99.90;;;;;;5037510;28;20064;-77
2024/04/02 06:20:39;;;;;;;2.20;0.60;;;9.00;99.90;;;;;;5063322;28;20055;-77
2024/04/02 06:23:05;;;;;;;4.53;1.13;;;9.00;99.90;;;;;;5053444;28;20100;-77
2024/04/02 06:25:31;;;;;;;1.30;0.60;;;9.00;99.90;;;;;;5065228;28;20115;-90
2024/04/02 06:27:57;;;;;;;3.67;1.00;;;8.90;99.90;;;;;;5046881;28;20119;-76
2024/04/02 06:30:23;;;;;;;1.80;0.70;;;8.90;99.90;;;;;;5078019;28;20534;-76
2024/04/02 06:32:49;;;;;;;3.95;1.30;;;9.00;99.90;;;;;;5033194;28;20053;-76
2024/04/02 06:35:15;;;;;;;2.58;0.70;;;9.10;99.90;;;;;;5028306;28;20632;-76
2024/04/02 06:37:41;;;;;;;2.55;0.52;;;9.20;99.90;;;;;;5052195;28;20041;-76
2024/04/02 06:40:07;;;;;;;1.67;0.68;;;9.30;99.90;;;;;;5043049;28;20062;-76
2024/04/02 06:42:33;;;;;;;2.08;0.50;;;9.30;99.90;;;;;;5060711;28;20036;-77
2024/04/02 06:44:59;;;;;;;2.08;0.80;;;9.40;99.90;;;;;;5051776;28;20090;-77
2024/04/02 06:47:25;;;;;;;2.20;0.63;;;9.50;99.90;;;;;;5069697;28;20044;-77
2024/04/02 06:49:51;;;;;;;3.67;0.80;;;9.60;99.90;;;;;;5047506;28;20036;-77
2024/04/02 06:52:17;;;;;;;2.20;0.70;;;9.70;99.90;;;;;;5042210;28;20049;-76
2024/04/02 06:54:43;;;;;;;3.33;0.80;;;9.80;99.90;;;;;;5068709;28;20037;-77
2024/04/02 06:57:10;;;;;;;2.42;0.70;;;9.80;99.90;;;;;;5053732;28;20043;-76
2024/04/02 06:59:38;;;;;;;3.95;0.98;;;9.90;99.90;;;;;;5093527;28;20028;-76
2024/04/02 07:02:05;;;;;;;4.68;1.10;;;9.90;99.90;;;;;;5037425;28;20036;-77
2024/04/02 07:04:32;;;;;;;4.35;1.05;;;9.90;99.90;;;;;;5046058;28;20098;-77
2024/04/02 07:06:58;;;;;;;4.05;1.00;;;9.90;99.90;;;;;;5037043;28;20045;-77
2024/04/02 07:09:24;;;;;;;3.10;1.20;;;9.80;99.90;;;;;;5066268;28;20040;-76
2024/04/02 07:11:53;;;;;;;4.45;1.40;;;9.80;99.90;;;;;;5049433;28;20064;-77
2024/04/02 07:14:19;;;;;;;2.42;0.93;;;9.90;99.90;;;;;;5040368;28;20052;-77
2024/04/02 07:16:44;;;;;;;5.47;1.90;;;9.90;99.90;;;;;;5066624;28;20055;-77
2024/04/02 07:19:11;;;;;;;5.32;1.88;;;10.00;99.90;;;;;;5049482;28;20056;-76
2024/04/02 07:21:36;;;;;;;5.40;2.08;;;10.00;99.90;;;;;;5069519;28;20072;-77
2024/04/02 07:24:03;;;;;;;6.72;1.88;;;10.00;99.90;;;;;;5063763;28;20036;-76
2024/04/02 07:26:29;;;;;;;2.85;1.42;;;10.00;99.90;;;;;;5073305;28;20100;-77
2024/04/02 07:28:55;;;;;;;5.13;1.70;;;10.00;99.90;;;;;;5039909;28;20538;-77
2024/04/02 07:31:24;;;;;;;5.28;1.50;;;10.00;99.90;;;;;;5039443;28;20088;-78
2024/04/02 07:33:51;;;;;;;4.57;1.40;;;10.00;99.90;;;;;;5052980;28;20049;-78
2024/04/02 07:36:18;;;;;;;5.25;1.40;;;10.00;99.90;;;;;;5036148;28;20045;-77
2024/04/02 07:38:44;;;;;;;6.70;1.48;;;10.10;99.90;;;;;;5031882;28;20052;-77
2024/04/02 07:41:11;;;;;;;6.40;1.95;;;10.10;99.90;;;;;;5047900;28;20462;-77
2024/04/02 07:43:37;;;;;;;8.90;2.22;;;10.10;99.90;;;;;;5060599;28;20036;-77
2024/04/02 07:46:03;;;;;;;9.35;2.72;;;10.10;99.90;;;;;;5052398;28;20056;-77
2024/04/02 07:48:29;;;;;;;4.95;1.63;;;10.10;99.90;;;;;;5039141;28;20044;-77
2024/04/02 07:50:56;;;;;;;7.03;2.38;;;10.10;99.90;;;;;;5053113;28;20048;-76
2024/04/02 07:53:24;;;;;;;7.97;2.50;;;10.10;99.90;;;;;;5064142;28;20044;-77
2024/04/02 07:55:50;;;;;;;8.27;2.13;;;10.10;99.90;;;;;;5039049;28;20484;-77
2024/04/02 07:58:16;;;;;;;6.97;2.25;;;10.20;99.90;;;;;;5038948;28;20042;-76
2024/04/02 08:00:44;;;;;;;4.00;2.03;;;10.10;99.90;;;;;;5038972;28;20090;-77
2024/04/02 08:03:10;;;;;;;6.55;1.65;;;10.20;99.90;;;;;;5051959;28;20044;-76
2024/04/02 08:05:36;;;;;;;4.07;1.27;;;10.20;99.90;;;;;;5073258;28;20044;-76
2024/04/02 08:08:03;;;;;;;5.32;1.48;;;10.30;99.90;;;;;;5075405;28;20036;-83
2024/04/02 08:10:29;;;;;;;4.47;1.65;;;10.30;99.90;;;;;;5040711;28;20040;-83
2024/04/02 08:12:55;;;;;;;3.40;0.95;;;10.40;99.90;;;;;;5022562;28;20087;-91
2024/04/02 08:15:21;;;;;;;6.95;1.85;;;10.40;99.90;;;;;;5037385;28;20048;-89
2024/04/02 08:17:47;;;;;;;6.03;1.45;;;10.40;99.90;;;;;;5041910;28;20073;-91
2024/04/02 08:20:14;;;;;;;4.53;1.45;;;10.50;99.90;;;;;;5026650;28;20079;-90
2024/04/02 08:22:40;;;;;;;2.55;0.90;;;10.50;99.90;;;;;;5036673;28;20044;-92
2024/04/02 08:25:07;;;;;;;2.72;0.80;;;10.50;99.90;;;;;;5016157;28;20044;-90
2024/04/02 08:27:42;;;;;;;4.93;1.08;;;10.50;99.90;;;;;;5070515;28;20484;-90
2024/04/02 08:30:08;;;;;;;2.90;0.77;;;10.60;99.90;;;;;;5041692;28;20040;-90
2024/04/02 08:32:36;;;;;;;4.53;1.00;;;10.50;99.90;;;;;;5049065;28;20049;-91
2024/04/02 08:35:04;;;;;;;4.75;1.08;;;10.50;99.90;;;;;;5037595;28;20044;-83
2024/04/02 08:37:31;;;;;;;5.32;1.48;;;10.50;99.90;;;;;;5026152;28;20055;-82
2024/04/02 08:39:57;;;;;;;4.80;1.30;;;10.50;99.90;;;;;;5038745;28;20063;-81
2024/04/02 08:42:26;;;;;;;4.20;1.33;;;10.50;99.90;;;;;;5035931;28;20063;-90
2024/04/02 08:44:54;;;;;;;4.88;0.82;;;10.50;99.90;;;;;;5032155;28;20408;-92
2024/04/02 08:47:21;;;;;;;4.40;1.20;;;10.50;99.90;;;;;;5039694;28;20047;-90
2024/04/02 08:49:49;;;;;;;5.43;1.73;;;10.60;99.90;;;;;;5040263;28;20040;-88
2024/04/02 08:52:15;;;;;;;3.75;1.00;;;10.60;99.90;;;;;;5040717;28;20071;-90
2024/04/02 08:54:41;;;;;;;5.47;1.10;;;10.70;99.90;;;;;;5051044;28;20055;-84
2024/04/02 08:57:07;;;;;;;4.95;1.02;;;10.80;99.90;;;;;;5038697;28;20044;-85
2024/04/02 08:59:34;;;;;;;3.53;0.85;;;10.80;99.90;;;;;;5039009;28;20033;-85
2024/04/02 09:02:02;;;;;;;4.35;0.70;;;10.90;99.90;;;;;;5038798;28;20416;-85
2024/04/02 09:04:32;;;;;;;2.63;0.60;;;10.90;99.90;;;;;;5086445;28;20446;-84
2024/04/02 09:06:58;;;;;;;4.55;0.75;;;11.00;99.90;;;;;;5057810;28;20041;-84
2024/04/02 09:09:25;;;;;;;4.68;1.00;;;11.00;99.90;;;;;;5038554;28;20041;-84
2024/04/02 09:11:52;;;;;;;5.22;0.93;;;11.10;99.90;;;;;;5038619;28;20071;-84
2024/04/02 09:14:24;;;;;;;6.13;1.33;;;11.10;99.90;;;;;;5049727;28;20098;-84
2024/04/02 09:16:55;;;;;;;4.28;0.70;;;11.10;99.90;;;;;;5052304;28;20041;-85
2024/04/02 09:19:20;;;;;;;5.18;0.80;;;11.20;99.90;;;;;;5042826;28;20037;-77
2024/04/02 09:21:46;;;;;;;6.18;1.00;;;11.20;99.90;;;;;;5037844;28;20055;-76
2024/04/02 09:24:13;;;;;;;9.90;1.15;;;11.20;99.90;;;;;;5060560;28;20036;-77
2024/04/02 09:26:38;;;;;;;6.00;1.05;;;11.30;99.90;;;;;;5025849;28;20051;-76
2024/04/02 09:29:04;;;;;;;5.65;1.10;;;11.30;99.90;;;;;;5043437;28;20033;-76
2024/04/02 09:31:33;;;;;;;6.90;1.00;;;11.30;99.80;;;;;;5035163;28;20091;-76
2024/04/02 09:34:05;;;;;;;4.70;1.13;;;11.30;99.70;;;;;;5063783;28;20046;-76
2024/04/02 09:36:38;;;;;;;5.82;1.65;;;11.40;99.50;;;;;;5078447;28;20040;-77
2024/04/02 09:39:08;;;;;;;5.05;1.23;;;11.50;99.00;;;;;;5058103;28;20044;-77
2024/04/02 09:41:40;;;;;;;5.03;1.08;;;11.60;99.10;;;;;;5034029;28;20044;-76
2024/04/02 09:44:13;;;;;;;6.63;1.30;;;11.70;98.70;;;;;;5074601;28;20043;-77
2024/04/02 09:46:40;;;;;;;6.95;1.20;;;11.80;98.90;;;;;;5052814;28;20397;-77
2024/04/02 09:49:08;;;;;;;4.93;0.90;;;11.80;98.50;;;;;;5054798;28;20037;-76
2024/04/02 09:51:35;;;;;;;7.05;1.45;;;11.80;98.40;;;;;;5038151;28;20045;-76
2024/04/02 09:54:03;;;;;;;5.53;1.40;;;11.80;98.30;;;;;;5054876;28;20044;-77
2024/04/02 09:56:32;;;;;;;10.73;1.80;;;11.90;98.40;;;;;;5058026;28;20037;-76
2024/04/02 09:59:03;;;;;;;6.00;1.17;;;12.00;98.00;;;;;;5055165;28;20044;-77
2024/04/02 10:01:33;;;;;;;7.07;0.80;;;12.10;97.40;;;;;;5076381;28;20105;-77
2024/04/02 10:04:05;;;;;;;4.55;0.82;;;12.30;97.30;;;;;;5092875;28;20391;-77
2024/04/02 10:06:34;;;;;;;;;;;12.40;97.00;;;;;;5049135;28;20051;-76
2024/04/02 10:09:05;;;;;;;5.75;0.88;;;12.50;96.80;;;;;;5076965;28;19920;-77
2024/04/02 10:11:44;;;;;;;7.95;1.40;;;12.60;96.50;;;;;;5041963;28;20053;-77
2024/04/02 10:14:15;;;;;;;10.95;0.95;;;12.80;96.00;;;;;;5037958;28;20076;-77
2024/04/02 10:16:42;;;;;;;4.45;0.82;;;12.90;95.50;;;;;;5048342;28;20059;-77
2024/04/02 10:19:16;;;;;;;5.82;0.70;;;13.10;95.50;;;;;;5067824;28;20102;-76
2024/04/02 10:21:43;;;;;;;3.08;0.68;;;13.60;95.00;;;;;;5050959;28;20043;-77
2024/04/02 10:24:11;;;;;;;7.65;1.27;;;14.00;94.20;;;;;;5044131;28;20041;-77
2024/04/02 10:26:41;;;;;;;4.75;0.88;;;14.00;93.10;;;;;;5044689;28;20518;-76
2024/04/02 10:29:07;;;;;;;4.15;0.70;;;13.80;92.90;;;;;;5044111;28;20072;-76
2024/04/02 10:31:38;;;;;;;4.22;0.73;;;13.60;93.00;;;;;;5020825;28;20052;-77
2024/04/02 10:34:10;;;;;;;3.08;0.70;;;13.40;93.00;;;;;;5063467;28;20047;-77
2024/04/02 10:36:37;;;;;;;10.73;0.80;;;13.10;92.60;;;;;;5085980;28;20040;-77
2024/04/02 10:39:03;;;;;;;6.70;0.90;;;12.90;93.20;;;;;;5039430;28;20500;-77
2024/04/02 10:41:33;;;;;;;6.55;0.90;;;12.70;93.40;;;;;;5045570;28;20128;-76
2024/04/02 10:43:59;;;;;;;8.38;0.88;;;12.50;93.80;;;;;;5040376;28;20519;-77
2024/04/02 10:46:26;;;;;;;3.38;0.93;;;12.30;94.50;;;;;;5057250;28;20165;-76
2024/04/02 10:48:56;;;;;;;6.60;0.85;;;12.00;95.50;;;;;;5050653;28;20032;-76
2024/04/02 10:51:22;;;;;;;4.72;0.90;;;11.80;96.30;;;;;;5073495;28;20044;-76
2024/04/02 10:53:48;;;;;;;3.88;0.95;;;11.70;97.00;;;;;;5040282;28;20056;-76
2024/04/02 10:56:15;;;;;;;3.50;0.93;;;11.80;97.60;;;;;;5047256;28;20074;-76
2024/04/02 10:58:42;;;;;;;4.53;1.10;;;11.80;97.90;;;;;;5058500;28;20036;-76
2024/04/02 11:01:08;;;;;;;3.70;0.90;;;11.70;98.30;;;;;;5041423;28;20185;-76
2024/04/02 11:03:34;;;;;;;2.97;0.70;;;11.70;98.60;;;;;;5039093;28;20094;-77
2024/04/02 11:06:03;;;;;;;5.03;0.60;;;11.60;98.80;;;;;;5040536;28;20039;-77
2024/04/02 11:08:29;;;;;;;5.22;1.00;;;11.70;99.00;;;;;;5086260;28;20036;-77
2024/04/02 11:10:55;;;;;;;4.05;0.90;;;11.70;99.20;;;;;;5043953;28;20040;-77
2024/04/02 11:13:26;;;;;;;2.72;0.60;;;11.70;99.50;;;;;;5047740;28;20052;-76
2024/04/02 11:15:51;;;;;;;3.20;0.60;;;11.70;99.70;;;;;;5035097;28;20059;-77
2024/04/02 11:18:25;;;;;;;2.53;0.47;;;11.60;99.90;;;;;;5059686;28;20044;-78
2024/04/02 11:20:59;;;;;;;4.18;0.70;;;11.60;99.90;;;;;;5069803;28;20052;-77
2024/04/02 11:26:19;;;;;;;3.17;0.57;;;11.70;99.90;;;;;;5074705;28;20035;-82
2024/04/02 11:28:45;;;;;;;4.40;1.05;;;11.60;99.90;;;;;;5062408;28;20043;-84
2024/04/02 11:31:12;;;;;;;2.28;0.65;;;11.50;99.90;;;;;;5052845;28;20037;-81
2024/04/02 11:33:39;;;;;;;4.32;1.00;;;11.50;99.90;;;;;;5023170;28;20048;-82
2024/04/02 11:36:07;;;;;;;3.80;1.15;;;11.50;99.90;;;;;;5055998;28;20052;-77
2024/04/02 11:38:39;;;;;;;2.78;0.50;;;11.50;99.90;;;;;;5037788;28;20493;-83
2024/04/02 11:41:07;;;;;;;3.67;0.70;;;11.60;99.90;;;;;;5039522;28;20040;-80
2024/04/02 11:43:33;;;;;;;3.97;0.75;;;11.50;99.90;;;;;;5053328;28;20043;-84
2024/04/02 11:45:59;;;;;;;3.33;0.50;;;11.50;99.90;;;;;;5049067;28;20037;-81
2024/04/02 11:48:26;;;;;;;2.15;0.85;;;11.50;99.90;;;;;;5043103;28;20033;-81
2024/04/02 11:50:52;;;;;;;3.35;0.70;;;11.50;99.90;;;;;;5044207;28;20034;-82
2024/04/02 11:53:18;;;;;;;3.95;0.80;;;11.40;99.90;;;;;;5040341;28;20048;-81
2024/04/02 11:55:45;;;;;;;4.80;1.00;;;11.20;99.90;;;;;;5059243;28;20459;-76
2024/04/02 12:00:55;;;;;;;3.28;0.50;;;11.00;99.90;;;;;;5064026;28;20089;-76
2024/04/02 12:03:22;;;;;;;3.08;0.73;;;10.90;99.90;;;;;;5058300;28;20510;-76
2024/04/02 12:05:48;;;;;;;6.10;1.10;;;10.90;99.90;;;;;;5050046;28;20050;-76
2024/04/02 12:08:14;;;;;;;3.53;0.80;;;10.80;99.90;;;;;;5063427;28;20503;-76
2024/04/02 12:10:40;;;;;;;2.08;0.55;;;10.80;99.90;;;;;;5029743;28;20095;-76
2024/04/02 12:13:06;;;;;;;3.28;1.17;;;10.80;99.90;;;;;;5042808;28;20400;-76
2024/04/02 12:15:32;;;;;;;3.25;0.70;;;10.90;99.90;;;;;;5040033;28;20048;-79
2024/04/02 12:17:59;;;;;;;3.53;1.00;;;11.00;99.90;;;;;;5060688;28;20113;-75
2024/04/02 12:20:25;;;;;;;5.22;1.15;;;11.20;99.90;;;;;;5039754;28;20049;-75
2024/04/02 12:22:51;;;;;;;4.28;1.27;;;11.30;99.90;;;;;;5051305;28;20036;-76
2024/04/02 12:25:17;;;;;;;6.15;0.90;;;11.30;99.90;;;;;;5040207;28;20088;-76
2024/04/02 12:27:43;;;;;;;4.45;1.30;;;11.30;99.90;;;;;;5059304;28;20033;-76
2024/04/02 12:30:10;;;;;;;3.78;1.13;;;11.40;99.90;;;;;;5069371;28;20075;-75
2024/04/02 12:32:38;;;;;;;3.42;0.80;;;11.50;99.90;;;;;;5066115;28;20048;-75
2024/04/02 12:35:04;;;;;;;2.97;0.80;;;11.60;99.90;;;;;;5038816;28;20040;-76
2024/04/02 12:37:30;;;;;;;2.42;0.73;;;11.80;99.90;;;;;;5028780;28;20508;-76
2024/04/02 12:39:56;;;;;;;1.75;0.55;;;12.10;99.90;;;;;;5067081;28;20407;-75
2024/04/02 12:42:22;;;;;;;2.08;0.70;;;12.30;99.90;;;;;;5090564;28;20032;-75
2024/04/02 12:44:49;;;;;;;2.65;0.75;;;12.40;99.90;;;;;;5068083;28;20055;-75
2024/04/02 12:47:15;;;;;;;5.88;0.90;;;12.40;99.90;;;;;;5070483;28;20492;-76
2024/04/02 12:49:42;;;;;;;3.15;1.30;;;12.30;99.90;;;;;;5040073;28;20035;-76
2024/04/02 12:52:09;;;;;;;4.30;1.25;;;12.30;99.90;;;;;;5073466;28;20515;-76
2024/04/02 12:54:36;;;;;;;6.65;1.40;;;12.30;99.90;;;;;;5058382;28;20043;-75
2024/04/02 12:57:02;;;;;;;3.42;0.65;;;12.10;99.90;;;;;;5064108;28;20048;-76